Last 24 Hours

OV-Siberia 8700'

Hourly Data | America/Los_Angeles
as of 5/9/26 8:27 AM PDT
Date & Time Temp (°F) RH (%) Dew Pt (°F) Wet Bulb (°F) Wind Dir (°) Wind Spd (mph) Wind Gust (mph) WindChill (°F) Daily Min Temp (°F) Daily Max Temp (°F)
5/9/26 - 0800 45.2 56 30.7 38.2 N | 0 13.0 25.9 39.1 41.7 45.5
5/9/26 - 0700 45.3 53 29.4 37.8 E | 99 13.6 23.5 38.2 41.7 45.4
5/9/26 - 0600 44.0 57 29.9 37.3 E | 98 12.5 25.2 36.9 41.7 45.2
5/9/26 - 0500 42.0 75 34.6 38.3 E | 93 13.0 20.3 35.3 41.8 45.2
5/9/26 - 0400 42.3 77 35.8 39.0 E | 91 13.9 23.4 36.1 42.3 45.2
5/9/26 - 0300 43.2 76 36.2 39.6 E | 90 11.1 20.7 38.3 43.2 45.2
5/9/26 - 0200 44.0 76 36.8 40.3 E | 96 10.2 17.2 38.6 43.6 45.2
5/9/26 - 0100 44.2 74 36.6 40.3 E | 92 11.9 25.1 38.5 44.0 45.2
5/9/26 - 0000 45.1 74 37.3 41.0 E | 97 7.6 15.1 42.0 41.6 56.5
5/8/26 - 2300 46.6 68 36.7 41.4 E | 95 6.6 14.0 43.6 41.6 56.5
5/8/26 - 2200 47.8 51 30.7 39.4 E | 89 4.4 9.3 46.0 41.6 56.5
5/8/26 - 2100 49.0 41 26.1 38.4 NW | 312 1.5 8.2 48.8 41.6 56.5
5/8/26 - 2000 48.6 71 39.6 43.6 WNW | 297 7.3 17.7 47.1 41.6 56.5
5/8/26 - 1900 51.5 64 39.8 45.1 WNW | 296 9.9 19.8 50.5 41.6 56.5
5/8/26 - 1800 53.0 47 33.4 42.9 WNW | 285 11.9 25.2 52.1 41.6 56.5
5/8/26 - 1700 53.9 39 29.5 41.8 WNW | 295 10.6 26.4 53.7 41.6 56.5
5/8/26 - 1600 54.1 32 25.2 40.5 W | 272 11.1 22.4 53.7 41.6 56.5
5/8/26 - 1500 54.3 30 23.7 40.2 W | 279 12.3 21.4 50.6 41.6 54.8
5/8/26 - 1400 53.6 30 23.1 39.6 W | 273 12.5 21.8 49.3 41.6 54.6
5/8/26 - 1300 53.9 30 23.3 39.8 W | 273 10.4 20.1 49.6 41.6 54.6
5/8/26 - 1200 50.9 30 20.5 37.6 W | 267 9.1 20.4 47.0 41.6 51.6
5/8/26 - 1100 49.5 26 16.1 35.8 W | 268 10.2 23.6 44.5 41.6 50.5
5/8/26 - 1000 47.6 25 13.8 34.2 W | 262 7.8 16.3 42.5 41.6 47.8
5/8/26 - 0900 44.9 27 12.9 32.6 WSW | 253 8.4 14.4 40.0 41.6 46.8
5/8/26 - 0800 43.9 30 14.8 32.5 W | 263 8.7 18.8 38.5 41.6 46.8
Max 54.3 77 39.8 45.1 - 13.9 26.4 53.7 44.0 56.5
Avg 47.9 50 28.7 39.1 - 10.0 19.8 44.0 - -
Min 42.0 25 12.9 32.5 - 1.5 8.2 35.3 41.6 45.2